sensor_id;sensor_type;location;lat;lon;timestamp;pressure;altitude;pressure_sealevel;temperature;humidity
76973;BME280;65907;53.640;10.050;2023-04-24T00:01:47;99473.34;;;24.17;37.91
76973;BME280;65907;53.640;10.050;2023-04-24T00:04:15;99469.81;;;24.10;38.12
76973;BME280;65907;53.640;10.050;2023-04-24T00:06:41;99465.47;;;24.17;37.56
76973;BME280;65907;53.640;10.050;2023-04-24T00:09:07;99469.91;;;24.16;37.69
76973;BME280;65907;53.640;10.050;2023-04-24T00:11:35;99461.75;;;24.11;38.14
76973;BME280;65907;53.640;10.050;2023-04-24T00:14:00;99466.66;;;24.14;38.08
76973;BME280;65907;53.640;10.050;2023-04-24T00:16:28;99467.91;;;24.18;37.72
76973;BME280;65907;53.640;10.050;2023-04-24T00:18:54;99466.84;;;24.13;37.61
76973;BME280;65907;53.640;10.050;2023-04-24T00:21:19;99449.09;;;24.15;37.63
76973;BME280;65907;53.640;10.050;2023-04-24T00:23:45;99451.97;;;24.20;37.67
76973;BME280;65907;53.640;10.050;2023-04-24T00:26:10;99452.50;;;24.15;37.82
76973;BME280;65907;53.640;10.050;2023-04-24T00:28:35;99452.88;;;24.12;37.74
76973;BME280;65907;53.640;10.050;2023-04-24T00:31:01;99457.13;;;24.13;37.46
76973;BME280;65907;53.640;10.050;2023-04-24T00:33:26;99443.75;;;24.23;37.74
76973;BME280;65907;53.640;10.050;2023-04-24T00:35:51;99447.19;;;24.24;37.64
76973;BME280;65907;53.640;10.050;2023-04-24T00:38:16;99447.91;;;24.17;37.54
76973;BME280;65907;53.640;10.050;2023-04-24T00:40:42;99447.25;;;24.15;37.64
76973;BME280;65907;53.640;10.050;2023-04-24T00:43:07;99443.63;;;24.16;37.89
76973;BME280;65907;53.640;10.050;2023-04-24T00:45:32;99439.38;;;24.15;37.45
76973;BME280;65907;53.640;10.050;2023-04-24T00:47:57;99437.84;;;24.21;37.43
76973;BME280;65907;53.640;10.050;2023-04-24T00:50:23;99434.06;;;24.24;37.76
76973;BME280;65907;53.640;10.050;2023-04-24T00:52:49;99434.75;;;24.17;37.63
76973;BME280;65907;53.640;10.050;2023-04-24T00:55:14;99426.63;;;24.12;37.62
76973;BME280;65907;53.640;10.050;2023-04-24T00:57:39;99425.88;;;24.18;37.46
76973;BME280;65907;53.640;10.050;2023-04-24T01:00:05;99423.81;;;24.14;37.70
76973;BME280;65907;53.640;10.050;2023-04-24T01:02:39;99423.47;;;24.17;37.44
76973;BME280;65907;53.640;10.050;2023-04-24T01:05:05;99424.72;;;24.21;37.54
76973;BME280;65907;53.640;10.050;2023-04-24T01:07:31;99422.56;;;24.25;37.41
76973;BME280;65907;53.640;10.050;2023-04-24T01:09:56;99424.63;;;24.14;37.49
76973;BME280;65907;53.640;10.050;2023-04-24T01:12:22;99415.31;;;24.12;37.47
76973;BME280;65907;53.640;10.050;2023-04-24T01:14:47;99421.94;;;24.23;37.17
76973;BME280;65907;53.640;10.050;2023-04-24T01:17:12;99418.00;;;24.18;37.49
76973;BME280;65907;53.640;10.050;2023-04-24T01:19:38;99404.88;;;24.18;36.96
76973;BME280;65907;53.640;10.050;2023-04-24T01:24:28;99410.88;;;24.12;37.23
76973;BME280;65907;53.640;10.050;2023-04-24T01:26:54;99402.63;;;24.15;37.15
76973;BME280;65907;53.640;10.050;2023-04-24T01:29:20;99409.50;;;24.16;37.34
76973;BME280;65907;53.640;10.050;2023-04-24T01:31:45;99418.00;;;24.18;37.28
76973;BME280;65907;53.640;10.050;2023-04-24T01:34:10;99419.84;;;24.18;37.15
76973;BME280;65907;53.640;10.050;2023-04-24T01:36:36;99426.72;;;24.19;37.32
76973;BME280;65907;53.640;10.050;2023-04-24T01:39:05;99427.44;;;24.13;37.46
76973;BME280;65907;53.640;10.050;2023-04-24T01:41:30;99434.75;;;24.17;37.30
76973;BME280;65907;53.640;10.050;2023-04-24T01:43:56;99435.97;;;24.15;37.29
76973;BME280;65907;53.640;10.050;2023-04-24T01:46:24;99448.25;;;24.14;37.12
76973;BME280;65907;53.640;10.050;2023-04-24T01:48:49;99444.00;;;24.13;37.21
76973;BME280;65907;53.640;10.050;2023-04-24T01:51:15;99444.28;;;24.18;37.17
76973;BME280;65907;53.640;10.050;2023-04-24T01:53:41;99440.91;;;24.10;37.26
76973;BME280;65907;53.640;10.050;2023-04-24T01:56:06;99453.06;;;24.11;37.06
76973;BME280;65907;53.640;10.050;2023-04-24T01:58:31;99452.88;;;24.12;37.18
76973;BME280;65907;53.640;10.050;2023-04-24T02:00:56;99453.59;;;24.06;37.09
76973;BME280;65907;53.640;10.050;2023-04-24T02:03:23;99451.78;;;24.06;37.03
76973;BME280;65907;53.640;10.050;2023-04-24T02:05:49;99451.97;;;24.05;37.31
76973;BME280;65907;53.640;10.050;2023-04-24T02:08:14;99452.41;;;24.09;37.00
76973;BME280;65907;53.640;10.050;2023-04-24T02:10:42;99459.75;;;24.13;37.13
76973;BME280;65907;53.640;10.050;2023-04-24T02:13:07;99466.38;;;24.09;37.13
76973;BME280;65907;53.640;10.050;2023-04-24T02:15:33;99455.75;;;24.02;36.99
76973;BME280;65907;53.640;10.050;2023-04-24T02:18:00;99447.34;;;24.07;37.08
76973;BME280;65907;53.640;10.050;2023-04-24T02:20:28;99444.25;;;24.03;37.42
76973;BME280;65907;53.640;10.050;2023-04-24T02:22:53;99441.63;;;24.03;37.07
76973;BME280;65907;53.640;10.050;2023-04-24T02:25:18;99432.59;;;24.06;37.32
76973;BME280;65907;53.640;10.050;2023-04-24T02:27:46;99436.03;;;24.06;36.96
76973;BME280;65907;53.640;10.050;2023-04-24T02:30:11;99436.38;;;24.03;37.07
76973;BME280;65907;53.640;10.050;2023-04-24T02:32:38;99431.78;;;24.05;37.37
76973;BME280;65907;53.640;10.050;2023-04-24T02:35:04;99428.63;;;24.10;37.17
76973;BME280;65907;53.640;10.050;2023-04-24T02:37:29;99428.63;;;24.10;37.37
76973;BME280;65907;53.640;10.050;2023-04-24T02:39:55;99430.25;;;24.11;37.06
76973;BME280;65907;53.640;10.050;2023-04-24T02:42:20;99425.00;;;24.11;36.84
76973;BME280;65907;53.640;10.050;2023-04-24T02:44:45;99427.63;;;24.11;36.99
76973;BME280;65907;53.640;10.050;2023-04-24T02:47:10;99433.22;;;24.08;37.07
76973;BME280;65907;53.640;10.050;2023-04-24T02:49:36;99427.16;;;24.08;37.09
76973;BME280;65907;53.640;10.050;2023-04-24T02:52:01;99424.72;;;24.06;37.07
76973;BME280;65907;53.640;10.050;2023-04-24T02:54:26;99429.59;;;24.09;36.81
76973;BME280;65907;53.640;10.050;2023-04-24T02:56:52;99417.66;;;24.06;36.86
76973;BME280;65907;53.640;10.050;2023-04-24T02:59:17;99425.16;;;24.10;37.17
76973;BME280;65907;53.640;10.050;2023-04-24T03:01:42;99417.47;;;24.08;37.03
76973;BME280;65907;53.640;10.050;2023-04-24T03:04:07;99425.34;;;24.08;37.02
76973;BME280;65907;53.640;10.050;2023-04-24T03:06:33;99410.75;;;24.05;36.75
76973;BME280;65907;53.640;10.050;2023-04-24T03:09:00;99412.28;;;24.00;37.24
76973;BME280;65907;53.640;10.050;2023-04-24T03:11:25;99413.38;;;24.05;37.18
76973;BME280;65907;53.640;10.050;2023-04-24T03:13:51;99411.06;;;24.11;36.70
76973;BME280;65907;53.640;10.050;2023-04-24T03:16:16;99417.75;;;24.13;36.83
76973;BME280;65907;53.640;10.050;2023-04-24T03:18:41;99415.84;;;24.07;37.09
76973;BME280;65907;53.640;10.050;2023-04-24T03:21:06;99409.75;;;24.06;37.02
76973;BME280;65907;53.640;10.050;2023-04-24T03:23:32;99407.34;;;24.05;36.71
76973;BME280;65907;53.640;10.050;2023-04-24T03:25:57;99409.97;;;24.05;36.81
76973;BME280;65907;53.640;10.050;2023-04-24T03:28:22;99415.59;;;24.02;37.02
76973;BME280;65907;53.640;10.050;2023-04-24T03:30:47;99406.72;;;24.03;37.17
76973;BME280;65907;53.640;10.050;2023-04-24T03:33:12;99416.22;;;24.04;37.16
76973;BME280;65907;53.640;10.050;2023-04-24T03:35:38;99418.19;;;24.02;36.75
76973;BME280;65907;53.640;10.050;2023-04-24T03:38:03;99419.16;;;24.01;36.91
76973;BME280;65907;53.640;10.050;2023-04-24T03:40:34;99425.09;;;24.03;36.99
76973;BME280;65907;53.640;10.050;2023-04-24T03:42:59;99420.84;;;24.02;36.87
76973;BME280;65907;53.640;10.050;2023-04-24T03:45:24;99420.84;;;24.02;36.70
76973;BME280;65907;53.640;10.050;2023-04-24T03:47:50;99418.19;;;24.02;36.69
76973;BME280;65907;53.640;10.050;2023-04-24T03:50:15;99425.25;;;24.01;36.89
76973;BME280;65907;53.640;10.050;2023-04-24T03:52:40;99413.47;;;23.97;36.87
76973;BME280;65907;53.640;10.050;2023-04-24T03:55:06;99421.78;;;24.01;36.82
76973;BME280;65907;53.640;10.050;2023-04-24T03:57:31;99415.25;;;23.97;37.07
76973;BME280;65907;53.640;10.050;2023-04-24T03:59:59;99417.22;;;24.03;36.93
76973;BME280;65907;53.640;10.050;2023-04-24T04:02:29;99409.34;;;24.03;36.53
76973;BME280;65907;53.640;10.050;2023-04-24T04:04:54;99407.09;;;23.91;36.88
76973;BME280;65907;53.640;10.050;2023-04-24T04:07:20;99413.25;;;23.99;36.86
76973;BME280;65907;53.640;10.050;2023-04-24T04:09:45;99424.59;;;23.99;36.81
76973;BME280;65907;53.640;10.050;2023-04-24T04:12:10;99421.13;;;23.99;36.48
76973;BME280;65907;53.640;10.050;2023-04-24T04:14:35;99424.41;;;24.01;36.93
76973;BME280;65907;53.640;10.050;2023-04-24T04:17:01;99424.75;;;23.98;36.64
76973;BME280;65907;53.640;10.050;2023-04-24T04:19:28;99425.13;;;23.95;36.76
76973;BME280;65907;53.640;10.050;2023-04-24T04:21:53;99425.59;;;23.98;36.66
76973;BME280;65907;53.640;10.050;2023-04-24T04:24:21;99423.97;;;23.97;36.63
76973;BME280;65907;53.640;10.050;2023-04-24T04:26:47;99420.50;;;23.97;36.78
76973;BME280;65907;53.640;10.050;2023-04-24T04:29:13;99419.50;;;23.98;36.52
76973;BME280;65907;53.640;10.050;2023-04-24T04:31:41;99409.38;;;23.95;36.95
76973;BME280;65907;53.640;10.050;2023-04-24T04:34:07;99410.84;;;23.97;36.71
76973;BME280;65907;53.640;10.050;2023-04-24T04:36:32;99408.72;;;23.92;36.45
76973;BME280;65907;53.640;10.050;2023-04-24T04:39:01;99407.31;;;23.90;35.64
76973;BME280;65907;53.640;10.050;2023-04-24T04:41:30;99404.03;;;23.88;35.85
76973;BME280;65907;53.640;10.050;2023-04-24T04:43:55;99417.81;;;23.90;35.98
76973;BME280;65907;53.640;10.050;2023-04-24T04:46:23;99414.97;;;23.91;36.02
76973;BME280;65907;53.640;10.050;2023-04-24T04:49:03;99422.09;;;23.68;37.16
76973;BME280;65907;53.640;10.050;2023-04-24T04:51:31;99426.38;;;23.84;36.54
76973;BME280;65907;53.640;10.050;2023-04-24T04:53:56;99417.25;;;23.95;37.04
76973;BME280;65907;53.640;10.050;2023-04-24T04:56:22;99426.94;;;23.94;36.93
76973;BME280;65907;53.640;10.050;2023-04-24T04:58:47;99416.59;;;23.92;37.15
76973;BME280;65907;53.640;10.050;2023-04-24T05:01:12;99425.69;;;23.90;37.07
76973;BME280;65907;53.640;10.050;2023-04-24T05:03:40;99425.94;;;23.95;37.10
76973;BME280;65907;53.640;10.050;2023-04-24T05:06:06;99429.72;;;23.92;37.20
76973;BME280;65907;53.640;10.050;2023-04-24T05:08:31;99429.38;;;23.96;36.85
76973;BME280;65907;53.640;10.050;2023-04-24T05:10:59;99426.19;;;23.70;37.18
76973;BME280;65907;53.640;10.050;2023-04-24T05:13:24;99431.25;;;23.87;37.04
76973;BME280;65907;53.640;10.050;2023-04-24T05:15:49;99426.72;;;23.81;37.08
76973;BME280;65907;53.640;10.050;2023-04-24T05:18:17;99430.41;;;22.22;35.12
76973;BME280;65907;53.640;10.050;2023-04-24T05:20:42;99438.97;;;20.38;37.77
76973;BME280;65907;53.640;10.050;2023-04-24T05:23:08;99433.13;;;20.87;38.42
76973;BME280;65907;53.640;10.050;2023-04-24T05:25:36;99419.34;;;21.53;38.24
76973;BME280;65907;53.640;10.050;2023-04-24T05:28:03;99434.63;;;22.39;36.69
76973;BME280;65907;53.640;10.050;2023-04-24T05:30:28;99441.94;;;22.92;35.61
76973;BME280;65907;53.640;10.050;2023-04-24T05:32:56;99435.00;;;23.31;35.08
76973;BME280;65907;53.640;10.050;2023-04-24T05:35:21;99437.81;;;23.53;34.90
76973;BME280;65907;53.640;10.050;2023-04-24T05:37:50;99438.47;;;23.70;35.01
76973;BME280;65907;53.640;10.050;2023-04-24T05:40:15;99445.56;;;23.69;34.94
76973;BME280;65907;53.640;10.050;2023-04-24T05:42:43;99451.59;;;23.70;34.97
76973;BME280;65907;53.640;10.050;2023-04-24T05:45:08;99453.53;;;23.76;35.34
76973;BME280;65907;53.640;10.050;2023-04-24T05:47:41;99445.00;;;23.74;35.51
76973;BME280;65907;53.640;10.050;2023-04-24T05:50:06;99444.66;;;23.77;35.54
76973;BME280;65907;53.640;10.050;2023-04-24T05:52:37;99445.94;;;23.81;35.38
76973;BME280;65907;53.640;10.050;2023-04-24T05:55:02;99448.38;;;23.83;35.36
76973;BME280;65907;53.640;10.050;2023-04-24T05:57:27;99435.88;;;23.85;35.31
76973;BME280;65907;53.640;10.050;2023-04-24T05:59:52;99442.88;;;23.92;35.38
76973;BME280;65907;53.640;10.050;2023-04-24T06:02:18;99449.31;;;23.90;35.27
76973;BME280;65907;53.640;10.050;2023-04-24T06:04:45;99446.56;;;23.83;35.59
76973;BME280;65907;53.640;10.050;2023-04-24T06:07:14;99448.84;;;23.86;35.37
76973;BME280;65907;53.640;10.050;2023-04-24T06:09:39;99457.50;;;23.87;35.40
76973;BME280;65907;53.640;10.050;2023-04-24T06:12:06;99461.13;;;23.86;35.46
76973;BME280;65907;53.640;10.050;2023-04-24T06:14:33;99453.44;;;23.84;35.56
76973;BME280;65907;53.640;10.050;2023-04-24T06:16:58;99461.31;;;23.84;35.42
76973;BME280;65907;53.640;10.050;2023-04-24T06:19:23;99459.97;;;23.88;35.39
76973;BME280;65907;53.640;10.050;2023-04-24T06:21:50;99458.81;;;23.91;35.32
76973;BME280;65907;53.640;10.050;2023-04-24T06:24:18;99461.25;;;23.92;35.44
76973;BME280;65907;53.640;10.050;2023-04-24T06:26:43;99471.56;;;23.94;35.42
76973;BME280;65907;53.640;10.050;2023-04-24T06:29:10;99467.50;;;23.91;35.31
76973;BME280;65907;53.640;10.050;2023-04-24T06:31:36;99460.88;;;23.96;35.43
76973;BME280;65907;53.640;10.050;2023-04-24T06:34:02;99472.00;;;23.98;35.62
76973;BME280;65907;53.640;10.050;2023-04-24T06:36:35;99472.72;;;23.91;35.64
76973;BME280;65907;53.640;10.050;2023-04-24T06:39:06;99476.34;;;23.90;35.46
76973;BME280;65907;53.640;10.050;2023-04-24T06:41:31;99474.97;;;23.80;35.88
76973;BME280;65907;53.640;10.050;2023-04-24T06:43:57;99479.06;;;23.82;35.65
76973;BME280;65907;53.640;10.050;2023-04-24T06:46:22;99479.25;;;23.96;35.54
76973;BME280;65907;53.640;10.050;2023-04-24T06:48:50;99471.75;;;23.92;35.41
76973;BME280;65907;53.640;10.050;2023-04-24T06:51:16;99477.53;;;23.88;35.87
76973;BME280;65907;53.640;10.050;2023-04-24T06:53:43;99483.84;;;24.02;35.46
76973;BME280;65907;53.640;10.050;2023-04-24T06:56:08;99489.91;;;24.02;35.58
76973;BME280;65907;53.640;10.050;2023-04-24T06:58:33;99477.81;;;24.61;34.66
76973;BME280;65907;53.640;10.050;2023-04-24T07:00:58;99485.97;;;24.52;34.76
76973;BME280;65907;53.640;10.050;2023-04-24T07:03:24;99494.75;;;24.29;35.19
76973;BME280;65907;53.640;10.050;2023-04-24T07:05:49;99502.63;;;24.29;34.98
76973;BME280;65907;53.640;10.050;2023-04-24T07:08:14;99504.69;;;24.33;35.14
76973;BME280;65907;53.640;10.050;2023-04-24T07:10:42;99500.25;;;24.34;35.29
76973;BME280;65907;53.640;10.050;2023-04-24T07:13:07;99496.63;;;24.35;35.12
76973;BME280;65907;53.640;10.050;2023-04-24T07:15:33;99496.38;;;24.30;35.44
76973;BME280;65907;53.640;10.050;2023-04-24T07:17:59;99484.78;;;24.39;34.87
76973;BME280;65907;53.640;10.050;2023-04-24T07:20:24;99476.63;;;24.34;35.16
76973;BME280;65907;53.640;10.050;2023-04-24T07:22:49;99487.22;;;24.41;34.96
76973;BME280;65907;53.640;10.050;2023-04-24T07:25:14;99492.75;;;24.31;35.14
76973;BME280;65907;53.640;10.050;2023-04-24T07:27:40;99494.66;;;24.52;34.80
76973;BME280;65907;53.640;10.050;2023-04-24T07:30:05;99493.28;;;24.71;34.52
76973;BME280;65907;53.640;10.050;2023-04-24T07:32:31;99493.28;;;24.86;34.05
76973;BME280;65907;53.640;10.050;2023-04-24T07:34:57;99498.06;;;24.98;33.91
76973;BME280;65907;53.640;10.050;2023-04-24T07:37:22;99493.38;;;24.93;33.98
76973;BME280;65907;53.640;10.050;2023-04-24T07:39:57;99494.41;;;25.14;33.81
76973;BME280;65907;53.640;10.050;2023-04-24T07:42:42;99510.97;;;24.92;33.98
76973;BME280;65907;53.640;10.050;2023-04-24T07:45:15;99506.91;;;24.75;34.49
76973;BME280;65907;53.640;10.050;2023-04-24T07:47:50;99511.78;;;24.93;34.23
76973;BME280;65907;53.640;10.050;2023-04-24T07:50:18;99514.88;;;24.82;34.23
76973;BME280;65907;53.640;10.050;2023-04-24T07:52:43;99511.25;;;24.83;34.40
76973;BME280;65907;53.640;10.050;2023-04-24T07:55:08;99514.59;;;24.91;34.38
76973;BME280;65907;53.640;10.050;2023-04-24T07:57:34;99517.03;;;24.78;34.34
76973;BME280;65907;53.640;10.050;2023-04-24T07:59:59;99518.06;;;24.92;34.26
76973;BME280;65907;53.640;10.050;2023-04-24T08:02:24;99516.97;;;24.86;34.42
76973;BME280;65907;53.640;10.050;2023-04-24T08:04:54;99520.94;;;24.97;34.18
76973;BME280;65907;53.640;10.050;2023-04-24T08:07:19;99525.44;;;25.03;34.00
76973;BME280;65907;53.640;10.050;2023-04-24T08:09:44;99523.28;;;25.07;34.21
76973;BME280;65907;53.640;10.050;2023-04-24T08:12:10;99532.47;;;24.96;34.04
76973;BME280;65907;53.640;10.050;2023-04-24T08:14:35;99529.19;;;24.94;34.28
76973;BME280;65907;53.640;10.050;2023-04-24T08:17:00;99547.28;;;24.44;34.93
76973;BME280;65907;53.640;10.050;2023-04-24T08:19:26;99537.34;;;24.69;34.55
76973;BME280;65907;53.640;10.050;2023-04-24T08:21:51;99545.22;;;24.69;34.60
76973;BME280;65907;53.640;10.050;2023-04-24T08:24:19;99550.75;;;24.74;34.55
76973;BME280;65907;53.640;10.050;2023-04-24T08:26:44;99548.50;;;24.71;34.85
76973;BME280;65907;53.640;10.050;2023-04-24T08:29:10;99551.13;;;24.71;34.57
76973;BME280;65907;53.640;10.050;2023-04-24T08:31:35;99551.22;;;24.78;34.31
76973;BME280;65907;53.640;10.050;2023-04-24T08:34:00;99556.53;;;24.55;34.87
76973;BME280;65907;53.640;10.050;2023-04-24T08:36:25;99556.66;;;24.61;34.85
76973;BME280;65907;53.640;10.050;2023-04-24T08:38:51;99557.44;;;24.62;34.71
76973;BME280;65907;53.640;10.050;2023-04-24T08:41:16;99555.09;;;24.67;34.60
76973;BME280;65907;53.640;10.050;2023-04-24T08:43:42;99550.22;;;24.79;34.47
76973;BME280;65907;53.640;10.050;2023-04-24T08:46:08;99554.22;;;24.75;34.62
76973;BME280;65907;53.640;10.050;2023-04-24T08:48:35;99552.88;;;24.94;34.16
76973;BME280;65907;53.640;10.050;2023-04-24T08:51:01;99550.56;;;24.91;34.09
76973;BME280;65907;53.640;10.050;2023-04-24T08:53:27;99547.41;;;24.96;33.95
76973;BME280;65907;53.640;10.050;2023-04-24T08:56:08;99552.28;;;24.69;34.55
76973;BME280;65907;53.640;10.050;2023-04-24T08:58:34;99547.41;;;24.81;34.37
76973;BME280;65907;53.640;10.050;2023-04-24T09:01:00;99548.50;;;24.71;34.30
76973;BME280;65907;53.640;10.050;2023-04-24T09:03:26;99545.22;;;24.99;33.97
76973;BME280;65907;53.640;10.050;2023-04-24T09:05:52;99542.16;;;24.96;33.98
76973;BME280;65907;53.640;10.050;2023-04-24T09:08:18;99550.28;;;25.01;33.86
76973;BME280;65907;53.640;10.050;2023-04-24T09:10:44;99548.59;;;24.93;34.06
76973;BME280;65907;53.640;10.050;2023-04-24T09:13:09;99557.81;;;24.89;34.09
76973;BME280;65907;53.640;10.050;2023-04-24T09:15:37;99559.41;;;24.83;34.37
76973;BME280;65907;53.640;10.050;2023-04-24T09:18:03;99556.84;;;24.75;34.45
76973;BME280;65907;53.640;10.050;2023-04-24T09:20:29;99560.00;;;24.70;34.52
76973;BME280;65907;53.640;10.050;2023-04-24T09:22:54;99560.06;;;24.62;34.63
76973;BME280;65907;53.640;10.050;2023-04-24T09:25:21;99566.91;;;24.71;34.53
76973;BME280;65907;53.640;10.050;2023-04-24T09:27:46;99563.44;;;24.71;34.48
76973;BME280;65907;53.640;10.050;2023-04-24T09:30:12;99566.91;;;24.71;34.51
76973;BME280;65907;53.640;10.050;2023-04-24T09:32:38;99568.53;;;24.72;34.33
76973;BME280;65907;53.640;10.050;2023-04-24T09:35:13;99563.63;;;24.69;34.75
76973;BME280;65907;53.640;10.050;2023-04-24T09:37:42;99562.91;;;24.60;34.80
76973;BME280;65907;53.640;10.050;2023-04-24T09:40:16;99566.16;;;24.62;34.95
76973;BME280;65907;53.640;10.050;2023-04-24T09:42:51;99568.59;;;24.64;34.41
76973;BME280;65907;53.640;10.050;2023-04-24T09:45:19;99569.84;;;24.53;34.76
76973;BME280;65907;53.640;10.050;2023-04-24T09:47:45;99572.84;;;24.50;34.84
76973;BME280;65907;53.640;10.050;2023-04-24T09:50:14;99580.09;;;24.48;34.83
76973;BME280;65907;53.640;10.050;2023-04-24T09:52:44;99580.63;;;24.43;35.20
76973;BME280;65907;53.640;10.050;2023-04-24T09:55:25;99566.44;;;24.53;35.05
76973;BME280;65907;53.640;10.050;2023-04-24T10:00:21;99580.47;;;24.45;34.80
76973;BME280;65907;53.640;10.050;2023-04-24T10:02:49;99580.25;;;24.31;35.05
76973;BME280;65907;53.640;10.050;2023-04-24T10:05:14;99581.81;;;24.41;35.05
76973;BME280;65907;53.640;10.050;2023-04-24T10:07:42;99579.81;;;24.43;34.72
76973;BME280;65907;53.640;10.050;2023-04-24T10:10:08;99573.84;;;24.49;34.71
76973;BME280;65907;53.640;10.050;2023-04-24T10:12:33;99574.56;;;24.43;34.67
76973;BME280;65907;53.640;10.050;2023-04-24T10:14:58;99576.84;;;24.46;35.02
76973;BME280;65907;53.640;10.050;2023-04-24T10:17:24;99577.34;;;24.41;34.80
76973;BME280;65907;53.640;10.050;2023-04-24T10:19:50;99569.47;;;24.41;34.85
76973;BME280;65907;53.640;10.050;2023-04-24T10:22:16;99574.97;;;24.31;34.94
76973;BME280;65907;53.640;10.050;2023-04-24T10:24:42;99575.91;;;24.39;34.85
76973;BME280;65907;53.640;10.050;2023-04-24T10:27:11;99571.38;;;23.86;35.75
76973;BME280;65907;53.640;10.050;2023-04-24T10:29:40;99578.22;;;24.18;35.35
76973;BME280;65907;53.640;10.050;2023-04-24T10:32:28;99574.84;;;23.23;34.84
76973;BME280;65907;53.640;10.050;2023-04-24T10:34:54;99573.75;;;23.09;33.31
76973;BME280;65907;53.640;10.050;2023-04-24T10:37:21;99572.09;;;23.16;34.97
76973;BME280;65907;53.640;10.050;2023-04-24T10:39:49;99579.81;;;22.61;36.95
76973;BME280;65907;53.640;10.050;2023-04-24T10:42:16;99575.84;;;23.30;36.57
76973;BME280;65907;53.640;10.050;2023-04-24T10:44:41;99576.13;;;23.90;36.05
76973;BME280;65907;53.640;10.050;2023-04-24T10:47:07;99585.75;;;23.98;35.68
76973;BME280;65907;53.640;10.050;2023-04-24T10:49:37;99584.91;;;23.98;36.17
76973;BME280;65907;53.640;10.050;2023-04-24T10:52:03;99583.75;;;24.00;35.95
76973;BME280;65907;53.640;10.050;2023-04-24T10:54:47;99582.31;;;24.21;35.87
76973;BME280;65907;53.640;10.050;2023-04-24T11:02:38;99576.28;;;24.36;35.94
76973;BME280;65907;53.640;10.050;2023-04-24T11:05:03;99579.91;;;24.34;36.04
76973;BME280;65907;53.640;10.050;2023-04-24T11:10:24;99584.75;;;23.99;35.73
76973;BME280;65907;53.640;10.050;2023-04-24T11:12:50;99587.84;;;23.56;37.30
76973;BME280;65907;53.640;10.050;2023-04-24T11:15:16;99589.00;;;23.54;36.88
76973;BME280;65907;53.640;10.050;2023-04-24T11:17:44;99594.06;;;23.55;36.93
76973;BME280;65907;53.640;10.050;2023-04-24T11:20:10;99591.41;;;23.87;36.71
76973;BME280;65907;53.640;10.050;2023-04-24T11:22:37;99591.53;;;24.17;35.72
76973;BME280;65907;53.640;10.050;2023-04-24T11:25:04;99585.56;;;24.23;35.84
76973;BME280;65907;53.640;10.050;2023-04-24T11:27:39;99590.44;;;24.11;35.78
76973;BME280;65907;53.640;10.050;2023-04-24T11:30:05;99583.47;;;23.72;36.38
76973;BME280;65907;53.640;10.050;2023-04-24T11:32:41;99583.09;;;23.75;36.84
76973;BME280;65907;53.640;10.050;2023-04-24T11:35:08;99585.59;;;24.00;36.57
76973;BME280;65907;53.640;10.050;2023-04-24T11:37:34;99590.59;;;24.33;35.68
76973;BME280;65907;53.640;10.050;2023-04-24T11:40:01;99582.69;;;24.33;35.70
76973;BME280;65907;53.640;10.050;2023-04-24T11:42:26;99588.69;;;24.27;35.66
76973;BME280;65907;53.640;10.050;2023-04-24T11:44:53;99602.38;;;24.37;35.73
76973;BME280;65907;53.640;10.050;2023-04-24T11:47:22;99595.00;;;24.32;35.97
76973;BME280;65907;53.640;10.050;2023-04-24T11:49:52;99594.94;;;24.26;35.62
76973;BME280;65907;53.640;10.050;2023-04-24T11:52:17;99606.13;;;24.19;35.79
76973;BME280;65907;53.640;10.050;2023-04-24T11:54:49;99599.31;;;24.10;36.09
76973;BME280;65907;53.640;10.050;2023-04-24T11:57:33;99598.72;;;24.23;36.04
76973;BME280;65907;53.640;10.050;2023-04-24T12:00:03;99604.47;;;24.42;35.49
76973;BME280;65907;53.640;10.050;2023-04-24T12:02:30;99603.19;;;24.38;35.51
76973;BME280;65907;53.640;10.050;2023-04-24T12:04:55;99610.31;;;24.29;36.04
76973;BME280;65907;53.640;10.050;2023-04-24T12:07:21;99604.09;;;24.45;35.50
76973;BME280;65907;53.640;10.050;2023-04-24T12:09:47;99616.28;;;24.23;35.87
76973;BME280;65907;53.640;10.050;2023-04-24T12:12:13;99619.47;;;23.86;36.45
76973;BME280;65907;53.640;10.050;2023-04-24T12:17:34;99622.94;;;24.10;35.74
76973;BME280;65907;53.640;10.050;2023-04-24T12:20:05;99621.88;;;24.19;35.56
76973;BME280;65907;53.640;10.050;2023-04-24T12:22:47;99628.34;;;24.32;35.55
76973;BME280;65907;53.640;10.050;2023-04-24T12:25:12;99629.47;;;24.38;35.38
76973;BME280;65907;53.640;10.050;2023-04-24T12:27:38;99632.38;;;24.43;34.89
76973;BME280;65907;53.640;10.050;2023-04-24T12:30:04;99631.25;;;24.37;34.98
76973;BME280;65907;53.640;10.050;2023-04-24T12:32:29;99634.34;;;24.41;35.15
76973;BME280;65907;53.640;10.050;2023-04-24T12:34:55;99642.69;;;24.44;35.07
76973;BME280;65907;53.640;10.050;2023-04-24T12:37:20;99646.63;;;24.48;34.78
76973;BME280;65907;53.640;10.050;2023-04-24T12:42:27;99646.50;;;24.42;34.53
76973;BME280;65907;53.640;10.050;2023-04-24T12:44:56;99651.28;;;24.38;34.75
76973;BME280;65907;53.640;10.050;2023-04-24T12:47:21;99656.66;;;24.45;34.49
76973;BME280;65907;53.640;10.050;2023-04-24T12:49:46;99662.78;;;24.37;34.57
76973;BME280;65907;53.640;10.050;2023-04-24T12:52:13;99670.19;;;24.33;34.67
76973;BME280;65907;53.640;10.050;2023-04-24T12:54:39;99670.38;;;24.32;35.08
76973;BME280;65907;53.640;10.050;2023-04-24T12:57:04;99669.41;;;24.33;34.33
76973;BME280;65907;53.640;10.050;2023-04-24T12:59:29;99689.56;;;24.32;34.95
76973;BME280;65907;53.640;10.050;2023-04-24T13:01:54;99682.41;;;24.26;34.50
76973;BME280;65907;53.640;10.050;2023-04-24T13:04:20;99685.22;;;22.97;32.14
76973;BME280;65907;53.640;10.050;2023-04-24T13:06:45;99703.72;;;21.69;34.66